createdAt,value
2018-06-22T00:00:17.386Z,67.64
2018-06-22T00:02:46.490Z,68.07
2018-06-22T00:05:15.570Z,69.13
2018-06-22T00:07:44.722Z,68.30
2018-06-22T00:10:13.814Z,68.43
2018-06-22T00:12:43.019Z,68.46
2018-06-22T00:15:12.195Z,68.83
2018-06-22T00:17:41.341Z,68.23
2018-06-22T00:20:10.521Z,68.04
2018-06-22T00:22:39.818Z,68.49
2018-06-22T00:25:08.956Z,68.22
2018-06-22T00:27:38.052Z,67.60
2018-06-22T00:30:07.157Z,67.30
2018-06-22T00:32:36.271Z,67.71
2018-06-22T00:35:05.893Z,67.66
2018-06-22T00:37:35.007Z,67.52
2018-06-22T00:40:04.244Z,67.42
2018-06-22T00:42:33.385Z,67.11
2018-06-22T00:45:02.740Z,66.89
2018-06-22T00:47:31.838Z,66.85
2018-06-22T00:50:00.961Z,67.02
2018-06-22T00:52:30.161Z,66.72
2018-06-22T00:54:59.317Z,66.65
2018-06-22T00:57:28.401Z,66.80
2018-06-22T00:59:57.519Z,66.55
2018-06-22T01:02:26.671Z,67.54
2018-06-22T01:04:55.808Z,67.06
2018-06-22T01:07:24.965Z,67.58
2018-06-22T01:09:54.061Z,67.47
2018-06-22T01:12:23.304Z,67.41
2018-06-22T01:14:52.468Z,68.00
2018-06-22T01:17:21.664Z,67.62
2018-06-22T01:19:50.790Z,68.18
2018-06-22T01:22:20.244Z,68.56
2018-06-22T01:24:49.390Z,68.63
2018-06-22T01:27:18.581Z,68.33
2018-06-22T01:29:47.720Z,68.49
2018-06-22T01:32:16.873Z,68.80
2018-06-22T01:34:46.800Z,68.57
2018-06-22T01:37:15.969Z,68.96
2018-06-22T01:39:45.095Z,69.42
2018-06-22T01:42:14.203Z,69.46
2018-06-22T01:44:43.317Z,69.59
2018-06-22T01:47:12.447Z,68.98
2018-06-22T01:49:41.511Z,68.95
2018-06-22T01:52:10.616Z,69.13
2018-06-22T01:54:39.826Z,69.11
2018-06-22T01:57:08.923Z,69.04
2018-06-22T01:59:38.028Z,68.94
2018-06-22T02:02:07.150Z,68.88
2018-06-22T02:04:36.298Z,69.19
2018-06-22T02:07:05.779Z,69.29
2018-06-22T02:09:34.898Z,68.93
2018-06-22T02:12:04.080Z,69.23
2018-06-22T02:14:33.174Z,69.26
2018-06-22T02:17:02.340Z,69.07
2018-06-22T02:19:31.464Z,69.23
2018-06-22T02:22:00.575Z,69.31
2018-06-22T02:24:29.738Z,68.97
2018-06-22T02:26:59.174Z,68.86
2018-06-22T02:29:28.472Z,69.00
2018-06-22T02:31:57.620Z,68.90
2018-06-22T02:34:26.900Z,69.58
2018-06-22T02:36:56.026Z,69.55
2018-06-22T02:39:25.152Z,69.84
2018-06-22T02:41:54.267Z,69.94
2018-06-22T02:44:23.463Z,70.20
2018-06-22T02:46:52.576Z,70.95
2018-06-22T02:49:21.752Z,70.50
2018-06-22T02:51:50.867Z,71.38
2018-06-22T02:54:19.996Z,71.02
2018-06-22T02:56:49.088Z,71.27
2018-06-22T02:59:18.232Z,71.44
2018-06-22T03:01:47.393Z,71.91
2018-06-22T03:04:16.555Z,72.10
2018-06-22T03:06:46.070Z,72.12
2018-06-22T03:09:15.934Z,71.92
2018-06-22T03:11:45.099Z,71.97
2018-06-22T03:14:14.201Z,71.84
2018-06-22T03:16:43.372Z,71.91
2018-06-22T03:19:12.494Z,72.10
2018-06-22T03:21:41.619Z,72.08
2018-06-22T03:24:10.766Z,72.05
2018-06-22T03:26:39.963Z,71.60
2018-06-22T03:29:09.049Z,71.50
2018-06-22T03:31:38.167Z,71.44
2018-06-22T03:34:07.350Z,71.61
2018-06-22T03:36:36.490Z,71.03
2018-06-22T03:39:07.547Z,70.72
2018-06-22T03:41:36.745Z,70.82
2018-06-22T03:44:05.885Z,70.77
2018-06-22T03:46:35.403Z,71.00
2018-06-22T03:49:04.537Z,71.00
2018-06-22T03:51:33.645Z,71.00
2018-06-22T03:54:03.166Z,71.03
2018-06-22T03:56:32.243Z,70.66
2018-06-22T03:59:01.394Z,70.91
2018-06-22T04:01:30.532Z,70.54
2018-06-22T04:03:59.681Z,70.40
2018-06-22T04:06:29.009Z,70.58
2018-06-22T04:08:58.123Z,70.77
2018-06-22T04:11:27.284Z,70.54
2018-06-22T04:13:56.492Z,71.08
2018-06-22T04:16:25.570Z,71.41
2018-06-22T04:18:54.771Z,71.27
2018-06-22T04:21:23.921Z,70.97
2018-06-22T04:23:53.036Z,71.31
2018-06-22T04:26:22.142Z,70.32
2018-06-22T04:28:51.328Z,70.39
2018-06-22T04:31:21.860Z,70.75
2018-06-22T04:33:51.360Z,70.57
2018-06-22T04:36:20.560Z,70.28
2018-06-22T04:38:49.709Z,70.24
2018-06-22T04:41:18.898Z,70.29
2018-06-22T04:43:48.022Z,70.54
2018-06-22T04:46:17.110Z,70.38
2018-06-22T04:48:46.392Z,69.87
2018-06-22T04:51:15.527Z,70.41
2018-06-22T04:53:44.737Z,69.75
2018-06-22T04:56:13.871Z,70.14
2018-06-22T04:58:43.554Z,70.39
2018-06-22T05:01:12.683Z,70.93
2018-06-22T05:03:41.809Z,71.86
2018-06-22T05:06:11.144Z,71.12
2018-06-22T05:08:40.268Z,71.46
2018-06-22T05:11:09.424Z,71.10
2018-06-22T05:13:38.511Z,71.39
2018-06-22T05:16:07.587Z,71.50
2018-06-22T05:18:36.764Z,71.68
2018-06-22T05:21:06.371Z,71.77
2018-06-22T05:23:35.520Z,72.20
2018-06-22T05:26:05.067Z,72.05
2018-06-22T05:28:34.277Z,72.68
2018-06-22T05:31:03.609Z,71.94
2018-06-22T05:33:39.112Z,72.17
2018-06-22T05:36:08.232Z,71.91
2018-06-22T05:38:37.488Z,71.38
2018-06-22T05:41:06.871Z,71.79
2018-06-22T05:43:36.123Z,71.37
2018-06-22T05:46:05.729Z,71.53
2018-06-22T05:48:34.933Z,71.15
2018-06-22T05:51:04.115Z,70.92
2018-06-22T05:53:33.230Z,69.78
2018-06-22T05:56:02.344Z,69.83
2018-06-22T05:58:31.482Z,69.71
2018-06-22T06:01:00.655Z,69.08
2018-06-22T06:03:29.888Z,69.15
2018-06-22T06:05:59.477Z,69.02
2018-06-22T06:08:28.671Z,69.23
2018-06-22T06:11:14.477Z,69.10
2018-06-22T06:13:45.769Z,69.01
2018-06-22T06:16:14.968Z,68.68
2018-06-22T06:18:44.119Z,68.17
2018-06-22T06:21:13.272Z,68.17
2018-06-22T06:23:42.443Z,67.72
2018-06-22T06:26:11.870Z,66.92
2018-06-22T06:28:41.059Z,66.85
2018-06-22T06:31:10.939Z,67.31
2018-06-22T06:33:40.159Z,67.18
2018-06-22T06:36:09.309Z,67.03
2018-06-22T06:38:38.580Z,67.20
2018-06-22T06:41:07.809Z,67.10
2018-06-22T06:43:36.957Z,66.91
2018-06-22T06:46:06.084Z,67.01
2018-06-22T06:48:35.252Z,66.52
2018-06-22T13:52:20.335Z,48.12
2018-06-22T13:54:49.479Z,48.63
2018-06-22T13:57:18.631Z,50.03
2018-06-22T13:59:47.793Z,49.86
2018-06-22T14:02:16.970Z,51.93
2018-06-22T14:04:51.452Z,51.88
2018-06-22T14:07:20.608Z,49.33
2018-06-22T14:09:49.787Z,49.27
2018-06-22T14:12:18.941Z,48.48
2018-06-22T14:14:48.079Z,48.60
2018-06-22T14:17:17.314Z,47.96
2018-06-22T14:19:46.478Z,48.75
2018-06-22T14:22:15.744Z,49.03
2018-06-22T14:24:44.868Z,48.48
2018-06-22T14:27:14.037Z,47.47
2018-06-22T14:29:43.206Z,45.38
2018-06-22T14:32:12.418Z,44.40
2018-06-22T14:34:41.583Z,43.47
2018-06-22T14:37:10.826Z,43.22
2018-06-22T14:39:40.062Z,44.22
2018-06-22T14:42:09.139Z,44.25
2018-06-22T14:44:38.303Z,43.93
2018-06-22T14:47:07.433Z,42.60
2018-06-22T14:49:36.604Z,41.75
2018-06-22T14:52:05.853Z,42.65
2018-06-22T14:54:40.221Z,43.89
2018-06-22T14:57:14.551Z,45.51
2018-06-22T14:59:49.102Z,44.50
2018-06-22T15:02:23.609Z,44.27
2018-06-22T15:04:57.906Z,44.56
2018-06-22T15:07:32.234Z,44.12
2018-06-22T15:10:01.497Z,43.44
2018-06-22T15:12:30.637Z,41.02
2018-06-22T15:14:59.744Z,41.58
2018-06-22T15:17:28.982Z,42.62
2018-06-22T15:19:58.123Z,42.83
2018-06-22T15:22:27.276Z,42.22
2018-06-22T15:24:56.437Z,41.89
2018-06-22T15:27:25.593Z,42.48
2018-06-22T15:29:54.699Z,41.12
2018-06-22T15:32:23.968Z,40.22
2018-06-22T15:34:58.383Z,39.91
2018-06-22T15:37:32.800Z,40.23
2018-06-22T15:40:07.192Z,41.45
2018-06-22T15:42:41.540Z,41.75
2018-06-22T15:45:15.826Z,42.20
2018-06-22T15:48:49.746Z,43.63
2018-06-22T15:51:24.605Z,45.31
2018-06-22T15:53:59.057Z,45.95
2018-06-22T15:56:28.389Z,46.61
2018-06-22T15:58:57.621Z,47.98
2018-06-22T16:01:27.346Z,48.88
2018-06-22T16:03:57.934Z,49.87
2018-06-22T16:06:29.470Z,50.76
2018-06-22T16:08:59.624Z,50.56
2018-06-22T16:11:29.847Z,50.82
2018-06-22T16:14:04.355Z,50.89
2018-06-22T16:16:39.648Z,50.48
2018-06-22T16:19:14.006Z,48.95
2018-06-22T16:21:48.379Z,48.57
2018-06-22T16:24:22.812Z,48.32
2018-06-22T16:26:57.338Z,47.38
2018-06-22T16:29:26.553Z,48.33
2018-06-22T16:31:55.663Z,48.68
2018-06-22T16:34:24.806Z,48.74
2018-06-22T16:36:53.925Z,48.83
2018-06-22T16:39:23.084Z,49.98
2018-06-22T16:41:52.249Z,50.20
2018-06-22T16:44:21.459Z,50.08
2018-06-22T16:46:50.578Z,50.59
2018-06-22T16:49:19.739Z,51.43
2018-06-22T16:51:48.982Z,52.20
2018-06-22T16:54:18.026Z,52.07
2018-06-22T16:56:47.169Z,52.96
2018-06-22T16:59:16.350Z,52.72
2018-06-22T17:01:45.519Z,52.01
2018-06-22T17:04:16.120Z,52.21
2018-06-22T17:06:50.603Z,51.49
2018-06-22T17:09:25.009Z,51.44
2018-06-22T17:11:59.494Z,51.64
2018-06-22T17:14:33.969Z,51.86
2018-06-22T17:17:08.299Z,52.38
2018-06-22T17:19:37.394Z,52.85
2018-06-22T17:22:06.718Z,52.84
2018-06-22T17:24:35.843Z,52.98
2018-06-22T17:27:05.456Z,52.86
2018-06-22T17:29:34.616Z,53.30
2018-06-22T17:32:03.847Z,53.85
2018-06-22T17:34:33.045Z,53.83
2018-06-22T17:37:02.242Z,53.79
2018-06-22T17:39:31.473Z,53.82
2018-06-22T17:42:00.635Z,53.72
2018-06-22T17:44:29.846Z,53.96
2018-06-22T17:46:58.982Z,54.38
2018-06-22T17:49:28.253Z,53.85
2018-06-22T17:51:57.420Z,54.50
2018-06-22T17:54:26.624Z,54.37
2018-06-22T17:56:55.829Z,55.00
2018-06-22T17:59:30.398Z,55.08
2018-06-22T18:02:04.790Z,54.99
2018-06-22T18:04:40.630Z,55.10
2018-06-22T18:07:15.171Z,55.71
2018-06-22T18:09:49.420Z,55.87
2018-06-22T18:12:23.870Z,56.78
2018-06-22T18:14:53.054Z,57.35
2018-06-22T18:17:22.284Z,57.47
2018-06-22T18:19:51.782Z,58.27
2018-06-22T18:22:20.903Z,58.65
2018-06-22T18:24:50.180Z,58.85
2018-06-22T18:27:19.380Z,59.26
2018-06-22T18:29:48.567Z,59.44
2018-06-22T18:32:17.742Z,59.65
2018-06-22T18:34:46.998Z,59.33
2018-06-22T18:37:16.192Z,59.16
2018-06-22T18:39:45.373Z,58.68
2018-06-22T18:42:14.494Z,58.46
2018-06-22T18:44:43.655Z,58.27
2018-06-22T18:47:12.887Z,58.00
2018-06-22T18:49:42.256Z,58.35
2018-06-22T18:52:16.783Z,58.43
2018-06-22T18:54:51.322Z,58.37
2018-06-22T18:57:25.714Z,58.02
2018-06-22T19:00:57.592Z,58.24
2018-06-22T19:03:32.012Z,57.99
2018-06-22T19:06:01.227Z,58.61
2018-06-22T19:08:30.411Z,58.98
2018-06-22T19:10:59.575Z,58.88
2018-06-22T19:13:28.769Z,59.19
2018-06-22T19:15:58.034Z,59.44
2018-06-22T19:18:27.216Z,59.91
2018-06-22T19:20:56.394Z,59.66
2018-06-22T19:23:25.593Z,60.02
2018-06-22T19:25:54.891Z,60.17
2018-06-22T19:28:24.196Z,59.67
2018-06-22T19:30:53.443Z,60.12
2018-06-22T19:33:22.634Z,60.45
2018-06-22T19:35:52.379Z,60.74
2018-06-22T19:38:21.574Z,60.78
2018-06-22T19:40:50.741Z,61.09
2018-06-22T19:43:25.285Z,61.00
2018-06-22T19:45:59.651Z,61.69
2018-06-22T19:48:33.974Z,61.91
2018-06-22T19:51:08.579Z,61.92
2018-06-22T19:53:43.063Z,62.63
2018-06-22T19:56:12.262Z,62.85
2018-06-22T19:58:41.506Z,63.12
2018-06-22T20:01:10.690Z,63.17
2018-06-22T20:03:39.990Z,62.79
2018-06-22T20:06:10.548Z,63.22
2018-06-22T20:08:39.724Z,63.59
2018-06-22T20:11:09.762Z,63.72
2018-06-22T20:13:38.957Z,63.80
2018-06-22T20:16:08.184Z,64.10
2018-06-22T20:18:37.330Z,63.86
2018-06-22T20:21:07.763Z,63.91
2018-06-22T20:23:37.068Z,63.86
2018-06-22T20:26:06.420Z,64.36
2018-06-22T20:28:35.571Z,64.11
2018-06-22T20:31:05.159Z,64.53
2018-06-22T20:33:34.397Z,64.70
2018-06-22T20:36:08.924Z,64.90
2018-06-22T20:38:43.201Z,65.37
2018-06-22T20:41:20.393Z,65.43
2018-06-22T20:43:54.704Z,65.71
2018-06-22T20:46:29.341Z,65.58
2018-06-22T20:49:03.869Z,65.55
2018-06-22T20:51:39.597Z,65.45
2018-06-22T20:54:08.700Z,65.62
2018-06-22T20:56:37.857Z,65.68
2018-06-22T20:59:07.050Z,66.03
2018-06-22T21:01:37.336Z,65.68
2018-06-22T21:04:06.824Z,66.10
2018-06-22T21:06:36.006Z,66.71
2018-06-22T21:09:07.337Z,66.79
2018-06-22T21:11:36.578Z,66.57
2018-06-22T21:14:05.736Z,67.26
2018-06-22T21:16:35.445Z,67.59
2018-06-22T21:19:04.619Z,67.92
2018-06-22T21:21:38.990Z,68.24
2018-06-22T21:24:08.157Z,68.14
2018-06-22T21:26:37.301Z,68.51
2018-06-22T21:29:11.565Z,68.59
2018-06-22T21:31:45.799Z,68.80
2018-06-22T21:34:20.028Z,68.56
2018-06-22T21:36:54.597Z,68.60
2018-06-22T21:39:24.022Z,68.98
2018-06-22T21:41:53.138Z,68.81
2018-06-22T21:44:22.266Z,69.40
2018-06-22T21:46:51.425Z,69.49
2018-06-22T21:49:20.612Z,69.75
2018-06-22T21:51:49.849Z,69.67
2018-06-22T21:54:18.965Z,69.57
2018-06-22T21:56:48.240Z,69.50
2018-06-22T21:59:17.365Z,70.34
2018-06-22T22:01:46.552Z,70.88
2018-06-22T22:04:15.720Z,70.62
2018-06-22T22:06:44.866Z,71.04
2018-06-22T22:09:13.991Z,71.24
2018-06-22T22:11:48.265Z,71.23
2018-06-22T22:14:17.377Z,71.88
2018-06-22T22:16:46.515Z,72.14
2018-06-22T22:19:15.639Z,72.49
2018-06-22T22:21:44.805Z,72.36
2018-06-22T22:24:14.091Z,72.46
2018-06-22T22:26:43.205Z,72.74
2018-06-22T22:29:12.493Z,73.12
2018-06-22T22:31:41.610Z,72.69
2018-06-22T22:34:10.710Z,72.71
2018-06-22T22:36:39.905Z,72.09
2018-06-22T22:39:09.035Z,72.13
2018-06-22T22:41:38.443Z,72.48
2018-06-22T22:44:07.956Z,72.87
2018-06-22T22:46:37.331Z,72.82
2018-06-22T22:49:06.447Z,72.65
2018-06-22T22:51:35.601Z,72.24
2018-06-22T22:54:04.739Z,72.30
2018-06-22T22:56:33.835Z,72.24
2018-06-22T22:59:02.965Z,72.61
2018-06-22T23:01:32.107Z,72.59
2018-06-22T23:04:01.221Z,72.41
2018-06-22T23:06:30.328Z,73.32
2018-06-22T23:08:59.457Z,73.81
2018-06-22T23:11:28.597Z,74.18
2018-06-22T23:13:57.830Z,74.42
2018-06-22T23:16:26.989Z,74.37
2018-06-22T23:18:56.184Z,74.68
2018-06-22T23:21:25.274Z,74.89
2018-06-22T23:23:54.504Z,75.09
2018-06-22T23:26:23.736Z,75.46
2018-06-22T23:28:52.837Z,74.92
2018-06-22T23:31:21.972Z,74.88
2018-06-22T23:33:51.106Z,75.16
2018-06-22T23:36:20.210Z,75.25
2018-06-22T23:38:49.372Z,75.06
2018-06-22T23:41:18.519Z,75.13
2018-06-22T23:43:47.634Z,75.68
2018-06-22T23:46:16.822Z,75.66
2018-06-22T23:48:45.971Z,75.39
2018-06-22T23:51:15.081Z,75.71
2018-06-22T23:53:44.215Z,75.84
2018-06-22T23:56:13.360Z,75.99
2018-06-22T23:58:42.516Z,75.60
